• Join FlightAware (Why Join?)
  • Login
  • US Flag 
Gobble Gobble! 
06:14AM EST


 

Airport Tracker/Info


-or-


 

Live Flight TrackerFlight Track Log ✈ FSR411 ✈ 22-Aug-2013 ✈ KMDW - KCID

Flight Track Log - Related Links

Times and Time Zones

All times are in EDT time to prevent confusion due to time zone crossing. See the FSR411 flight status page for this flight to view local times or setup timezone preferences in your user account.

Time Position Orientation Groundspeed Altitude Reporting Facility
EDT Latitude Longitude Course Direction KTS MPH feet Rate Location/Type
08:04AM 41.7833 -87.8500 251° West 201 231 4,800  Level Chicago TRACON
08:05AM 41.7703 -87.8958 249° West 212 244 6,500 2,640 Climbing Chicago Center
08:06AM 41.8389 -87.9611 325° Northwest 263 303 9,700 2,940 Climbing Chicago Center
08:07AM 41.9114 -88.0167 330° Northwest 303 349 12,600 2,340 Climbing Chicago Center
08:08AM 42.0067 -88.0264 356° North 345 397 14,600 1,860 Climbing Chicago Center
08:09AM 42.0917 -88.0308 358° North 312 359 16,500 1,620 Climbing Chicago Center
08:10AM 42.1789 -88.0344 358° North 314 361 18,000 720 Climbing Chicago Center
08:11AM 42.2781 -88.0389 358° North 356 410 18,000  Level Chicago Center
08:12AM 42.4000 -88.0464 357° North 402 463 18,000  Level Chicago Center
08:13AM 42.5161 -88.0528 358° North 415 478 18,000  Level Chicago Center
08:14AM 42.6483 -88.0589 358° North 408 470 18,000  Level Chicago Center
08:15AM 42.7622 -88.0631 358° North 408 470 18,000  Level Chicago Center
08:16AM 42.8353 -88.1647 314° West 406 467 18,000  Level Chicago Center
08:17AM 42.8208 -88.3186 263° West 409 471 18,000  Level Chicago Center
08:18AM 42.8006 -88.4703 260° West 406 467 18,000  Level Chicago Center
08:19AM 42.7811 -88.6242 260° West 410 472 18,000  Level Chicago Center
08:20AM 42.7619 -88.7772 260° West 409 471 18,000 -120 Level Chicago Center
08:21AM 42.7389 -88.9514 260° West 400 460 17,800 -540 Descending Chicago Center
08:22AM 42.7183 -89.0856 258° West 368 423 17,000 -900 Descending Chicago Center
08:23AM 42.6794 -89.2178 248° West 377 434 16,000 -540 Descending Chicago Center
08:24AM 42.6378 -89.3475 246° West 374 430 16,000  Level Chicago Center
08:25AM 42.5994 -89.4744 248° West 365 420 16,000  Level Chicago Center
08:26AM 42.5472 -89.5950 240° Southwest 380 437 16,000  Level Chicago Center
08:27AM 42.4817 -89.7067 232° Southwest 380 437 16,000  Level Chicago Center
08:28AM 42.4097 -89.8442 235° Southwest 382 440 16,000  Level Chicago Center
08:30AM 42.3544 -89.9444 233° Southwest 381 438 16,000  Level Chicago Center
08:31AM 42.2961 -90.0597 236° Southwest 377 434 16,000  Level Chicago Center
08:32AM 42.2242 -90.1958 235° Southwest 373 429 16,000  Level Chicago Center
08:33AM 42.1653 -90.3100 235° Southwest 373 429 16,000  Level Chicago Center
08:34AM 42.1044 -90.4292 235° Southwest 384 442 16,000  Level Chicago Center
08:35AM 42.0453 -90.5456 236° Southwest 381 438 16,000 -360 Level Chicago Center
08:36AM 42.0239 -90.6772 258° West 375 432 15,300 -840 Descending Chicago Center
08:37AM 42.0072 -90.8122 261° West 369 425 14,300 -1,080 Descending Chicago Center
08:38AM 41.9858 -90.9681 260° West 360 414 13,100 -1,320 Descending Chicago Center
08:39AM 41.9672 -91.0928 259° West 349 402 11,600 -1,620 Descending Chicago Center
08:40AM 41.9372 -91.1983 249° West 307 353 9,800 -1,860 Descending Chicago Center
08:41AM 41.9122 -91.2967 251° West 287 330 7,800 -2,220 Descending Chicago Center
08:42AM 41.8886 -91.3850 250° West 268 308 5,300 -2,580 Descending Chicago Center
08:43AM 41.8550 -91.4817 245° Southwest 252 290 2,600 -1,380 Descending Chicago Center
08:44AM 41.8506 -91.5517 265° West 225 259 2,500 -300 Descending Chicago Center
08:45AM 41.8700 -91.6053 296° West 184 212 2,000 -540 Descending Chicago Center
08:46AM 41.8839 -91.6503 293° West 158 182 1,500 -300 Descending Chicago Center
08:47AM 41.8928 -91.6947 285° West 152 175 1,400 -120 Descending Chicago Center
08:49AM 41.8833 -91.7000 255° West  Level FlightAware Approximate
08:56AM 41.8847 -91.7108 255° West  Level Estimated